sensor_id;sensor_type;location;lat;lon;timestamp;P1;durP1;ratioP1;P2;durP2;ratioP2
59970;SDS011;45825;45.434;9.116;2022-09-16T00:00:05;10.93;;;3.58;;
59970;SDS011;45825;45.434;9.116;2022-09-16T00:02:32;14.57;;;3.78;;
59970;SDS011;45825;45.434;9.116;2022-09-16T00:04:57;11.68;;;3.95;;
59970;SDS011;45825;45.434;9.116;2022-09-16T00:07:22;12.50;;;3.90;;
59970;SDS011;45825;45.434;9.116;2022-09-16T00:09:47;11.10;;;3.40;;
59970;SDS011;45825;45.434;9.116;2022-09-16T00:12:13;11.02;;;3.40;;
59970;SDS011;45825;45.434;9.116;2022-09-16T00:14:38;11.80;;;3.72;;
59970;SDS011;45825;45.434;9.116;2022-09-16T00:17:03;13.35;;;3.90;;
59970;SDS011;45825;45.434;9.116;2022-09-16T00:19:29;13.25;;;3.80;;
59970;SDS011;45825;45.434;9.116;2022-09-16T00:21:54;8.40;;;3.50;;
59970;SDS011;45825;45.434;9.116;2022-09-16T00:24:19;8.45;;;3.30;;
59970;SDS011;45825;45.434;9.116;2022-09-16T00:26:45;14.23;;;3.75;;
59970;SDS011;45825;45.434;9.116;2022-09-16T00:29:10;12.38;;;4.07;;
59970;SDS011;45825;45.434;9.116;2022-09-16T00:31:35;11.25;;;4.03;;
59970;SDS011;45825;45.434;9.116;2022-09-16T00:34:01;14.63;;;4.03;;
59970;SDS011;45825;45.434;9.116;2022-09-16T00:36:27;13.23;;;4.35;;
59970;SDS011;45825;45.434;9.116;2022-09-16T00:38:52;11.85;;;3.97;;
59970;SDS011;45825;45.434;9.116;2022-09-16T00:41:20;8.85;;;3.78;;
59970;SDS011;45825;45.434;9.116;2022-09-16T00:43:56;12.05;;;3.67;;
59970;SDS011;45825;45.434;9.116;2022-09-16T00:46:30;16.02;;;4.32;;
59970;SDS011;45825;45.434;9.116;2022-09-16T00:51:41;11.48;;;3.75;;
59970;SDS011;45825;45.434;9.116;2022-09-16T00:54:08;11.98;;;3.88;;
59970;SDS011;45825;45.434;9.116;2022-09-16T00:56:34;11.10;;;3.65;;
59970;SDS011;45825;45.434;9.116;2022-09-16T00:59:19;10.45;;;3.72;;
59970;SDS011;45825;45.434;9.116;2022-09-16T01:01:48;13.35;;;3.83;;
59970;SDS011;45825;45.434;9.116;2022-09-16T01:04:20;11.88;;;3.92;;
59970;SDS011;45825;45.434;9.116;2022-09-16T01:06:50;15.88;;;4.35;;
59970;SDS011;45825;45.434;9.116;2022-09-16T01:09:17;13.80;;;3.95;;
59970;SDS011;45825;45.434;9.116;2022-09-16T01:11:45;11.10;;;3.60;;
59970;SDS011;45825;45.434;9.116;2022-09-16T01:14:10;14.05;;;4.07;;
59970;SDS011;45825;45.434;9.116;2022-09-16T01:16:58;12.45;;;4.10;;
59970;SDS011;45825;45.434;9.116;2022-09-16T01:25:06;9.73;;;4.57;;
59970;SDS011;45825;45.434;9.116;2022-09-16T01:35:38;13.02;;;4.63;;
59970;SDS011;45825;45.434;9.116;2022-09-16T01:41:39;10.15;;;4.15;;
59970;SDS011;45825;45.434;9.116;2022-09-16T01:46:38;16.05;;;4.70;;
59970;SDS011;45825;45.434;9.116;2022-09-16T01:52:20;9.70;;;4.50;;
59970;SDS011;45825;45.434;9.116;2022-09-16T01:55:06;11.98;;;4.28;;
59970;SDS011;45825;45.434;9.116;2022-09-16T01:57:45;12.90;;;4.53;;
59970;SDS011;45825;45.434;9.116;2022-09-16T02:00:28;13.80;;;4.57;;
59970;SDS011;45825;45.434;9.116;2022-09-16T02:03:05;12.43;;;4.25;;
59970;SDS011;45825;45.434;9.116;2022-09-16T02:05:36;10.60;;;4.35;;
59970;SDS011;45825;45.434;9.116;2022-09-16T02:08:30;9.38;;;4.43;;
59970;SDS011;45825;45.434;9.116;2022-09-16T02:10:59;13.35;;;4.70;;
59970;SDS011;45825;45.434;9.116;2022-09-16T02:13:29;10.07;;;4.70;;
59970;SDS011;45825;45.434;9.116;2022-09-16T02:16:07;10.98;;;4.35;;
59970;SDS011;45825;45.434;9.116;2022-09-16T02:18:39;9.38;;;3.85;;
59970;SDS011;45825;45.434;9.116;2022-09-16T02:21:07;12.15;;;4.80;;
59970;SDS011;45825;45.434;9.116;2022-09-16T02:23:39;13.48;;;4.57;;
59970;SDS011;45825;45.434;9.116;2022-09-16T02:26:10;12.75;;;4.80;;
59970;SDS011;45825;45.434;9.116;2022-09-16T02:28:41;12.88;;;4.65;;
59970;SDS011;45825;45.434;9.116;2022-09-16T02:31:11;10.73;;;4.47;;
59970;SDS011;45825;45.434;9.116;2022-09-16T02:33:49;14.23;;;4.70;;
59970;SDS011;45825;45.434;9.116;2022-09-16T02:36:26;11.57;;;4.60;;
59970;SDS011;45825;45.434;9.116;2022-09-16T02:38:58;14.10;;;5.13;;
59970;SDS011;45825;45.434;9.116;2022-09-16T02:41:29;14.60;;;4.60;;
59970;SDS011;45825;45.434;9.116;2022-09-16T02:43:56;12.73;;;4.32;;
59970;SDS011;45825;45.434;9.116;2022-09-16T02:46:25;13.32;;;4.50;;
59970;SDS011;45825;45.434;9.116;2022-09-16T02:57:09;13.30;;;5.28;;
59970;SDS011;45825;45.434;9.116;2022-09-16T02:59:34;11.35;;;4.85;;
59970;SDS011;45825;45.434;9.116;2022-09-16T03:02:02;11.32;;;5.07;;
59970;SDS011;45825;45.434;9.116;2022-09-16T03:04:28;14.10;;;5.47;;
59970;SDS011;45825;45.434;9.116;2022-09-16T03:06:54;9.82;;;4.72;;
59970;SDS011;45825;45.434;9.116;2022-09-16T03:09:19;13.32;;;5.82;;
59970;SDS011;45825;45.434;9.116;2022-09-16T03:14:48;12.18;;;5.13;;
59970;SDS011;45825;45.434;9.116;2022-09-16T03:28:24;9.97;;;4.87;;
59970;SDS011;45825;45.434;9.116;2022-09-16T03:31:04;10.15;;;4.75;;
59970;SDS011;45825;45.434;9.116;2022-09-16T03:33:41;11.43;;;4.57;;
59970;SDS011;45825;45.434;9.116;2022-09-16T03:36:12;10.50;;;4.53;;
59970;SDS011;45825;45.434;9.116;2022-09-16T03:38:39;11.88;;;5.32;;
59970;SDS011;45825;45.434;9.116;2022-09-16T03:41:06;10.98;;;5.10;;
59970;SDS011;45825;45.434;9.116;2022-09-16T03:43:33;13.65;;;5.15;;
59970;SDS011;45825;45.434;9.116;2022-09-16T03:45:59;14.13;;;5.15;;
59970;SDS011;45825;45.434;9.116;2022-09-16T03:48:24;11.52;;;4.97;;
59970;SDS011;45825;45.434;9.116;2022-09-16T03:50:49;13.25;;;5.07;;
59970;SDS011;45825;45.434;9.116;2022-09-16T03:53:15;13.30;;;5.63;;
59970;SDS011;45825;45.434;9.116;2022-09-16T03:55:40;12.30;;;5.45;;
59970;SDS011;45825;45.434;9.116;2022-09-16T03:58:05;10.77;;;4.82;;
59970;SDS011;45825;45.434;9.116;2022-09-16T04:00:31;9.07;;;4.70;;
59970;SDS011;45825;45.434;9.116;2022-09-16T04:02:57;10.63;;;5.10;;
59970;SDS011;45825;45.434;9.116;2022-09-16T04:05:24;9.70;;;4.53;;
59970;SDS011;45825;45.434;9.116;2022-09-16T04:07:50;11.88;;;4.72;;
59970;SDS011;45825;45.434;9.116;2022-09-16T04:10:15;12.15;;;4.60;;
59970;SDS011;45825;45.434;9.116;2022-09-16T04:12:41;12.32;;;5.30;;
59970;SDS011;45825;45.434;9.116;2022-09-16T04:15:06;10.15;;;4.70;;
59970;SDS011;45825;45.434;9.116;2022-09-16T04:17:32;12.52;;;5.40;;
59970;SDS011;45825;45.434;9.116;2022-09-16T04:19:58;13.77;;;5.53;;
59970;SDS011;45825;45.434;9.116;2022-09-16T04:22:26;15.23;;;6.07;;
59970;SDS011;45825;45.434;9.116;2022-09-16T04:24:53;16.02;;;5.57;;
59970;SDS011;45825;45.434;9.116;2022-09-16T04:27:18;12.57;;;5.70;;
59970;SDS011;45825;45.434;9.116;2022-09-16T04:29:43;12.90;;;5.22;;
59970;SDS011;45825;45.434;9.116;2022-09-16T04:32:09;14.18;;;5.53;;
59970;SDS011;45825;45.434;9.116;2022-09-16T04:34:34;9.48;;;4.93;;
59970;SDS011;45825;45.434;9.116;2022-09-16T04:36:59;12.18;;;5.20;;
59970;SDS011;45825;45.434;9.116;2022-09-16T04:39:24;14.88;;;6.60;;
59970;SDS011;45825;45.434;9.116;2022-09-16T04:41:50;14.38;;;6.60;;
59970;SDS011;45825;45.434;9.116;2022-09-16T04:44:15;14.20;;;6.82;;
59970;SDS011;45825;45.434;9.116;2022-09-16T04:46:41;15.75;;;6.57;;
59970;SDS011;45825;45.434;9.116;2022-09-16T04:49:06;19.58;;;7.38;;
59970;SDS011;45825;45.434;9.116;2022-09-16T04:51:31;12.77;;;7.45;;
59970;SDS011;45825;45.434;9.116;2022-09-16T04:53:57;14.30;;;7.00;;
59970;SDS011;45825;45.434;9.116;2022-09-16T04:56:24;14.57;;;8.73;;
59970;SDS011;45825;45.434;9.116;2022-09-16T04:58:54;18.67;;;9.30;;
59970;SDS011;45825;45.434;9.116;2022-09-16T05:01:23;16.90;;;8.40;;
59970;SDS011;45825;45.434;9.116;2022-09-16T05:03:51;20.30;;;9.35;;
59970;SDS011;45825;45.434;9.116;2022-09-16T05:06:19;16.42;;;8.80;;
59970;SDS011;45825;45.434;9.116;2022-09-16T05:08:46;17.65;;;9.30;;
59970;SDS011;45825;45.434;9.116;2022-09-16T05:11:13;18.30;;;9.68;;
59970;SDS011;45825;45.434;9.116;2022-09-16T05:13:43;22.27;;;10.20;;
59970;SDS011;45825;45.434;9.116;2022-09-16T05:16:10;17.77;;;10.18;;
59970;SDS011;45825;45.434;9.116;2022-09-16T05:18:37;17.60;;;8.98;;
59970;SDS011;45825;45.434;9.116;2022-09-16T05:21:04;18.27;;;10.07;;
59970;SDS011;45825;45.434;9.116;2022-09-16T05:23:32;17.58;;;10.40;;
59970;SDS011;45825;45.434;9.116;2022-09-16T05:26:02;19.58;;;9.80;;
59970;SDS011;45825;45.434;9.116;2022-09-16T05:28:29;20.20;;;10.90;;
59970;SDS011;45825;45.434;9.116;2022-09-16T05:30:55;19.73;;;10.32;;
59970;SDS011;45825;45.434;9.116;2022-09-16T05:33:20;16.15;;;9.80;;
59970;SDS011;45825;45.434;9.116;2022-09-16T05:35:45;20.27;;;11.07;;
59970;SDS011;45825;45.434;9.116;2022-09-16T05:38:11;20.88;;;10.57;;
59970;SDS011;45825;45.434;9.116;2022-09-16T05:40:37;18.88;;;11.82;;
59970;SDS011;45825;45.434;9.116;2022-09-16T05:43:03;18.77;;;11.27;;
59970;SDS011;45825;45.434;9.116;2022-09-16T05:45:28;20.02;;;11.20;;
59970;SDS011;45825;45.434;9.116;2022-09-16T05:47:53;20.88;;;11.65;;
59970;SDS011;45825;45.434;9.116;2022-09-16T05:50:19;21.15;;;11.00;;
59970;SDS011;45825;45.434;9.116;2022-09-16T05:52:44;16.48;;;10.93;;
59970;SDS011;45825;45.434;9.116;2022-09-16T05:55:09;20.52;;;12.02;;
59970;SDS011;45825;45.434;9.116;2022-09-16T05:57:35;17.13;;;12.38;;
59970;SDS011;45825;45.434;9.116;2022-09-16T06:00:00;20.80;;;12.50;;
59970;SDS011;45825;45.434;9.116;2022-09-16T06:02:27;20.88;;;12.65;;
59970;SDS011;45825;45.434;9.116;2022-09-16T06:04:52;17.15;;;11.60;;
59970;SDS011;45825;45.434;9.116;2022-09-16T06:07:17;20.42;;;12.98;;
59970;SDS011;45825;45.434;9.116;2022-09-16T06:09:43;19.75;;;13.00;;
59970;SDS011;45825;45.434;9.116;2022-09-16T06:12:08;18.50;;;13.05;;
59970;SDS011;45825;45.434;9.116;2022-09-16T06:14:34;23.58;;;13.40;;
59970;SDS011;45825;45.434;9.116;2022-09-16T06:17:00;20.67;;;12.20;;
59970;SDS011;45825;45.434;9.116;2022-09-16T06:19:26;24.20;;;12.48;;
59970;SDS011;45825;45.434;9.116;2022-09-16T06:21:51;19.95;;;12.75;;
59970;SDS011;45825;45.434;9.116;2022-09-16T06:24:17;17.52;;;10.70;;
59970;SDS011;45825;45.434;9.116;2022-09-16T06:26:44;21.33;;;12.60;;
59970;SDS011;45825;45.434;9.116;2022-09-16T06:29:11;20.48;;;12.90;;
59970;SDS011;45825;45.434;9.116;2022-09-16T06:31:38;20.73;;;12.50;;
59970;SDS011;45825;45.434;9.116;2022-09-16T06:34:04;23.95;;;13.55;;
59970;SDS011;45825;45.434;9.116;2022-09-16T06:36:31;24.00;;;14.65;;
59970;SDS011;45825;45.434;9.116;2022-09-16T06:39:01;20.63;;;13.65;;
59970;SDS011;45825;45.434;9.116;2022-09-16T06:41:29;20.38;;;13.65;;
59970;SDS011;45825;45.434;9.116;2022-09-16T06:43:55;19.92;;;12.43;;
59970;SDS011;45825;45.434;9.116;2022-09-16T06:46:22;22.85;;;13.18;;
59970;SDS011;45825;45.434;9.116;2022-09-16T06:48:49;22.95;;;13.30;;
59970;SDS011;45825;45.434;9.116;2022-09-16T06:51:17;22.75;;;13.65;;
59970;SDS011;45825;45.434;9.116;2022-09-16T06:53:44;21.73;;;12.95;;
59970;SDS011;45825;45.434;9.116;2022-09-16T06:56:11;24.67;;;13.45;;
59970;SDS011;45825;45.434;9.116;2022-09-16T06:58:40;20.55;;;12.18;;
59970;SDS011;45825;45.434;9.116;2022-09-16T07:01:11;19.48;;;11.85;;
59970;SDS011;45825;45.434;9.116;2022-09-16T07:03:39;19.20;;;10.27;;
59970;SDS011;45825;45.434;9.116;2022-09-16T07:06:06;17.10;;;9.13;;
59970;SDS011;45825;45.434;9.116;2022-09-16T07:08:33;21.42;;;10.23;;
59970;SDS011;45825;45.434;9.116;2022-09-16T07:11:04;20.00;;;9.45;;
59970;SDS011;45825;45.434;9.116;2022-09-16T07:13:35;19.33;;;8.27;;
59970;SDS011;45825;45.434;9.116;2022-09-16T07:16:01;22.30;;;9.10;;
59970;SDS011;45825;45.434;9.116;2022-09-16T07:18:28;19.40;;;8.45;;
59970;SDS011;45825;45.434;9.116;2022-09-16T07:21:04;14.52;;;7.47;;
59970;SDS011;45825;45.434;9.116;2022-09-16T07:23:32;18.88;;;7.63;;
59970;SDS011;45825;45.434;9.116;2022-09-16T07:26:00;17.23;;;8.27;;
59970;SDS011;45825;45.434;9.116;2022-09-16T07:28:26;17.40;;;8.65;;
59970;SDS011;45825;45.434;9.116;2022-09-16T07:30:51;13.73;;;7.53;;
59970;SDS011;45825;45.434;9.116;2022-09-16T07:33:17;13.20;;;7.05;;
59970;SDS011;45825;45.434;9.116;2022-09-16T07:35:42;13.45;;;6.50;;
59970;SDS011;45825;45.434;9.116;2022-09-16T07:38:07;18.38;;;7.88;;
59970;SDS011;45825;45.434;9.116;2022-09-16T07:40:33;16.73;;;9.90;;
59970;SDS011;45825;45.434;9.116;2022-09-16T07:42:58;17.92;;;7.43;;
59970;SDS011;45825;45.434;9.116;2022-09-16T07:45:24;18.58;;;7.60;;
59970;SDS011;45825;45.434;9.116;2022-09-16T07:47:49;16.17;;;6.72;;
59970;SDS011;45825;45.434;9.116;2022-09-16T07:50:15;16.33;;;8.23;;
59970;SDS011;45825;45.434;9.116;2022-09-16T07:52:40;16.10;;;7.10;;
59970;SDS011;45825;45.434;9.116;2022-09-16T07:55:06;17.30;;;8.32;;
59970;SDS011;45825;45.434;9.116;2022-09-16T07:57:31;16.67;;;8.07;;
59970;SDS011;45825;45.434;9.116;2022-09-16T07:59:56;19.95;;;7.68;;
59970;SDS011;45825;45.434;9.116;2022-09-16T08:02:23;13.75;;;7.03;;
59970;SDS011;45825;45.434;9.116;2022-09-16T08:04:49;15.77;;;7.80;;
59970;SDS011;45825;45.434;9.116;2022-09-16T08:07:14;14.50;;;8.90;;
59970;SDS011;45825;45.434;9.116;2022-09-16T08:09:39;19.63;;;10.05;;
59970;SDS011;45825;45.434;9.116;2022-09-16T08:12:05;17.45;;;6.75;;
59970;SDS011;45825;45.434;9.116;2022-09-16T08:14:32;17.27;;;9.23;;
59970;SDS011;45825;45.434;9.116;2022-09-16T08:16:57;14.20;;;8.57;;
59970;SDS011;45825;45.434;9.116;2022-09-16T08:19:22;10.02;;;6.55;;
59970;SDS011;45825;45.434;9.116;2022-09-16T08:21:48;18.35;;;8.85;;
59970;SDS011;45825;45.434;9.116;2022-09-16T08:24:13;16.42;;;8.93;;
59970;SDS011;45825;45.434;9.116;2022-09-16T08:26:40;14.88;;;8.35;;
59970;SDS011;45825;45.434;9.116;2022-09-16T08:29:06;13.80;;;7.88;;
59970;SDS011;45825;45.434;9.116;2022-09-16T08:31:31;16.52;;;8.68;;
59970;SDS011;45825;45.434;9.116;2022-09-16T08:33:57;15.77;;;8.77;;
59970;SDS011;45825;45.434;9.116;2022-09-16T08:36:23;15.75;;;8.73;;
59970;SDS011;45825;45.434;9.116;2022-09-16T08:38:51;15.00;;;6.75;;
59970;SDS011;45825;45.434;9.116;2022-09-16T08:41:28;14.55;;;6.68;;
59970;SDS011;45825;45.434;9.116;2022-09-16T08:52:07;14.70;;;6.65;;
59970;SDS011;45825;45.434;9.116;2022-09-16T08:54:45;13.75;;;7.97;;
59970;SDS011;45825;45.434;9.116;2022-09-16T08:57:14;13.95;;;5.90;;
59970;SDS011;45825;45.434;9.116;2022-09-16T08:59:47;16.83;;;6.22;;
59970;SDS011;45825;45.434;9.116;2022-09-16T09:02:36;15.57;;;7.00;;
59970;SDS011;45825;45.434;9.116;2022-09-16T09:05:01;12.63;;;6.00;;
59970;SDS011;45825;45.434;9.116;2022-09-16T09:07:31;16.60;;;8.00;;
59970;SDS011;45825;45.434;9.116;2022-09-16T09:13:07;13.00;;;6.03;;
59970;SDS011;45825;45.434;9.116;2022-09-16T09:15:51;15.48;;;6.80;;
59970;SDS011;45825;45.434;9.116;2022-09-16T09:24:24;14.90;;;7.40;;
59970;SDS011;45825;45.434;9.116;2022-09-16T09:30:16;16.10;;;6.20;;
59970;SDS011;45825;45.434;9.116;2022-09-16T09:33:01;13.80;;;5.40;;
59970;SDS011;45825;45.434;9.116;2022-09-16T09:41:32;15.60;;;6.97;;
59970;SDS011;45825;45.434;9.116;2022-09-16T09:46:39;12.57;;;4.85;;
59970;SDS011;45825;45.434;9.116;2022-09-16T09:49:22;15.63;;;5.90;;
59970;SDS011;45825;45.434;9.116;2022-09-16T09:54:47;13.65;;;7.20;;
59970;SDS011;45825;45.434;9.116;2022-09-16T09:57:23;12.23;;;6.00;;
59970;SDS011;45825;45.434;9.116;2022-09-16T09:59:59;13.52;;;6.30;;
59970;SDS011;45825;45.434;9.116;2022-09-16T10:02:41;16.83;;;6.72;;
59970;SDS011;45825;45.434;9.116;2022-09-16T10:05:14;13.63;;;6.25;;
59970;SDS011;45825;45.434;9.116;2022-09-16T10:07:46;14.25;;;5.45;;
59970;SDS011;45825;45.434;9.116;2022-09-16T10:10:16;12.57;;;6.30;;
59970;SDS011;45825;45.434;9.116;2022-09-16T10:12:45;14.98;;;6.45;;
59970;SDS011;45825;45.434;9.116;2022-09-16T10:15:44;14.68;;;6.60;;
59970;SDS011;45825;45.434;9.116;2022-09-16T10:18:07;14.70;;;6.53;;
59970;SDS011;45825;45.434;9.116;2022-09-16T10:20:38;14.38;;;5.85;;
59970;SDS011;45825;45.434;9.116;2022-09-16T10:28:03;12.98;;;5.72;;
59970;SDS011;45825;45.434;9.116;2022-09-16T10:30:31;11.48;;;5.72;;
59970;SDS011;45825;45.434;9.116;2022-09-16T10:33:22;13.93;;;5.32;;
59970;SDS011;45825;45.434;9.116;2022-09-16T10:35:51;13.50;;;5.00;;
59970;SDS011;45825;45.434;9.116;2022-09-16T10:38:40;11.88;;;4.50;;
59970;SDS011;45825;45.434;9.116;2022-09-16T10:41:15;10.10;;;3.45;;
59970;SDS011;45825;45.434;9.116;2022-09-16T10:43:45;13.63;;;6.93;;
59970;SDS011;45825;45.434;9.116;2022-09-16T10:46:14;10.20;;;3.80;;
59970;SDS011;45825;45.434;9.116;2022-09-16T10:48:41;10.55;;;3.60;;
59970;SDS011;45825;45.434;9.116;2022-09-16T10:51:18;10.13;;;3.67;;
59970;SDS011;45825;45.434;9.116;2022-09-16T10:53:52;13.15;;;4.80;;
59970;SDS011;45825;45.434;9.116;2022-09-16T10:56:23;9.40;;;3.50;;
59970;SDS011;45825;45.434;9.116;2022-09-16T11:01:42;11.68;;;3.88;;
59970;SDS011;45825;45.434;9.116;2022-09-16T11:17:51;10.82;;;3.20;;
59970;SDS011;45825;45.434;9.116;2022-09-16T11:23:06;10.98;;;3.15;;
59970;SDS011;45825;45.434;9.116;2022-09-16T11:26:42;7.93;;;3.60;;
59970;SDS011;45825;45.434;9.116;2022-09-16T11:31:30;12.75;;;5.22;;
59970;SDS011;45825;45.434;9.116;2022-09-16T11:45:14;11.05;;;3.33;;
59970;SDS011;45825;45.434;9.116;2022-09-16T11:47:44;8.15;;;2.90;;
59970;SDS011;45825;45.434;9.116;2022-09-16T11:53:06;11.10;;;3.58;;
59970;SDS011;45825;45.434;9.116;2022-09-16T11:55:46;13.63;;;3.70;;
59970;SDS011;45825;45.434;9.116;2022-09-16T11:58:29;8.82;;;2.80;;
59970;SDS011;45825;45.434;9.116;2022-09-16T12:01:00;11.02;;;3.60;;
59970;SDS011;45825;45.434;9.116;2022-09-16T12:03:40;9.48;;;3.20;;
59970;SDS011;45825;45.434;9.116;2022-09-16T12:06:14;9.93;;;2.90;;
59970;SDS011;45825;45.434;9.116;2022-09-16T12:13:43;9.80;;;3.47;;
59970;SDS011;45825;45.434;9.116;2022-09-16T12:16:13;11.68;;;4.10;;
59970;SDS011;45825;45.434;9.116;2022-09-16T12:24:03;9.65;;;2.75;;
59970;SDS011;45825;45.434;9.116;2022-09-16T12:26:47;12.20;;;2.95;;
59970;SDS011;45825;45.434;9.116;2022-09-16T12:34:29;12.80;;;2.90;;
59970;SDS011;45825;45.434;9.116;2022-09-16T12:39:56;8.80;;;2.20;;
59970;SDS011;45825;45.434;9.116;2022-09-16T12:45:19;6.95;;;2.90;;
59970;SDS011;45825;45.434;9.116;2022-09-16T12:56:47;7.53;;;2.42;;
59970;SDS011;45825;45.434;9.116;2022-09-16T13:01:59;6.80;;;2.20;;
59970;SDS011;45825;45.434;9.116;2022-09-16T13:04:42;6.22;;;2.42;;
59970;SDS011;45825;45.434;9.116;2022-09-16T13:10:01;6.68;;;1.67;;
59970;SDS011;45825;45.434;9.116;2022-09-16T13:12:32;4.45;;;1.85;;
59970;SDS011;45825;45.434;9.116;2022-09-16T13:15:00;4.78;;;1.95;;
59970;SDS011;45825;45.434;9.116;2022-09-16T13:17:32;4.73;;;1.67;;
59970;SDS011;45825;45.434;9.116;2022-09-16T13:22:46;8.02;;;1.95;;
59970;SDS011;45825;45.434;9.116;2022-09-16T13:30:52;4.85;;;1.65;;
59970;SDS011;45825;45.434;9.116;2022-09-16T13:38:47;6.18;;;1.60;;
59970;SDS011;45825;45.434;9.116;2022-09-16T13:44:03;6.70;;;2.05;;
59970;SDS011;45825;45.434;9.116;2022-09-16T13:46:51;4.45;;;1.70;;
59970;SDS011;45825;45.434;9.116;2022-09-16T13:49:18;5.65;;;2.00;;
59970;SDS011;45825;45.434;9.116;2022-09-16T13:51:47;7.80;;;1.60;;
59970;SDS011;45825;45.434;9.116;2022-09-16T13:54:25;3.88;;;1.60;;
59970;SDS011;45825;45.434;9.116;2022-09-16T13:59:43;5.28;;;1.52;;
59970;SDS011;45825;45.434;9.116;2022-09-16T14:07:55;4.45;;;1.55;;
59970;SDS011;45825;45.434;9.116;2022-09-16T14:10:30;6.45;;;1.88;;
59970;SDS011;45825;45.434;9.116;2022-09-16T14:13:12;6.00;;;1.80;;
59970;SDS011;45825;45.434;9.116;2022-09-16T14:15:54;6.25;;;1.95;;
59970;SDS011;45825;45.434;9.116;2022-09-16T14:18:22;6.40;;;1.67;;
59970;SDS011;45825;45.434;9.116;2022-09-16T14:23:27;8.23;;;2.08;;
59970;SDS011;45825;45.434;9.116;2022-09-16T14:25:53;7.95;;;1.77;;
59970;SDS011;45825;45.434;9.116;2022-09-16T14:30:47;4.28;;;2.10;;
59970;SDS011;45825;45.434;9.116;2022-09-16T14:33:21;6.55;;;2.00;;
59970;SDS011;45825;45.434;9.116;2022-09-16T14:35:52;5.68;;;1.85;;
59970;SDS011;45825;45.434;9.116;2022-09-16T14:38:23;3.63;;;1.83;;
59970;SDS011;45825;45.434;9.116;2022-09-16T14:40:57;11.23;;;2.67;;
59970;SDS011;45825;45.434;9.116;2022-09-16T14:43:23;8.75;;;2.40;;
59970;SDS011;45825;45.434;9.116;2022-09-16T14:45:49;4.88;;;1.80;;
59970;SDS011;45825;45.434;9.116;2022-09-16T14:48:18;4.35;;;1.70;;
59970;SDS011;45825;45.434;9.116;2022-09-16T14:50:47;19.23;;;3.30;;
59970;SDS011;45825;45.434;9.116;2022-09-16T14:53:33;13.02;;;2.60;;
59970;SDS011;45825;45.434;9.116;2022-09-16T14:56:00;5.13;;;1.98;;
59970;SDS011;45825;45.434;9.116;2022-09-16T14:58:27;4.35;;;1.90;;
59970;SDS011;45825;45.434;9.116;2022-09-16T15:01:00;7.55;;;2.20;;
59970;SDS011;45825;45.434;9.116;2022-09-16T15:03:40;6.32;;;2.15;;
59970;SDS011;45825;45.434;9.116;2022-09-16T15:06:13;6.13;;;2.05;;
59970;SDS011;45825;45.434;9.116;2022-09-16T15:08:45;6.57;;;1.98;;
59970;SDS011;45825;45.434;9.116;2022-09-16T15:11:16;6.32;;;2.00;;
59970;SDS011;45825;45.434;9.116;2022-09-16T15:13:46;4.95;;;2.13;;
59970;SDS011;45825;45.434;9.116;2022-09-16T15:16:16;7.55;;;2.22;;
59970;SDS011;45825;45.434;9.116;2022-09-16T15:18:51;5.82;;;2.28;;
59970;SDS011;45825;45.434;9.116;2022-09-16T15:21:24;7.63;;;2.17;;
59970;SDS011;45825;45.434;9.116;2022-09-16T15:24:00;11.00;;;2.50;;
59970;SDS011;45825;45.434;9.116;2022-09-16T15:28:56;5.13;;;2.10;;
59970;SDS011;45825;45.434;9.116;2022-09-16T15:31:27;7.22;;;2.08;;
59970;SDS011;45825;45.434;9.116;2022-09-16T15:34:02;5.70;;;2.15;;
59970;SDS011;45825;45.434;9.116;2022-09-16T15:36:39;5.85;;;2.10;;
59970;SDS011;45825;45.434;9.116;2022-09-16T15:39:19;4.90;;;2.20;;
59970;SDS011;45825;45.434;9.116;2022-09-16T15:42:02;6.55;;;2.20;;
59970;SDS011;45825;45.434;9.116;2022-09-16T15:44:33;6.70;;;2.47;;
59970;SDS011;45825;45.434;9.116;2022-09-16T15:47:00;6.90;;;2.13;;
59970;SDS011;45825;45.434;9.116;2022-09-16T15:49:27;6.18;;;2.42;;
59970;SDS011;45825;45.434;9.116;2022-09-16T15:51:56;6.20;;;2.13;;
59970;SDS011;45825;45.434;9.116;2022-09-16T15:54:32;5.28;;;2.15;;
59970;SDS011;45825;45.434;9.116;2022-09-16T16:02:46;8.05;;;2.75;;
59970;SDS011;45825;45.434;9.116;2022-09-16T16:05:18;6.30;;;2.20;;
59970;SDS011;45825;45.434;9.116;2022-09-16T16:07:52;7.57;;;2.53;;
59970;SDS011;45825;45.434;9.116;2022-09-16T16:15:22;8.75;;;2.50;;
59970;SDS011;45825;45.434;9.116;2022-09-16T16:17:52;7.45;;;2.30;;
59970;SDS011;45825;45.434;9.116;2022-09-16T16:20:18;6.05;;;2.55;;
59970;SDS011;45825;45.434;9.116;2022-09-16T16:22:44;6.00;;;2.30;;
59970;SDS011;45825;45.434;9.116;2022-09-16T16:25:10;8.27;;;2.65;;
59970;SDS011;45825;45.434;9.116;2022-09-16T16:27:37;9.13;;;2.63;;
59970;SDS011;45825;45.434;9.116;2022-09-16T16:30:03;6.95;;;2.38;;
59970;SDS011;45825;45.434;9.116;2022-09-16T16:32:29;6.32;;;2.20;;
59970;SDS011;45825;45.434;9.116;2022-09-16T16:34:55;8.18;;;2.47;;
59970;SDS011;45825;45.434;9.116;2022-09-16T16:37:24;6.53;;;2.55;;
59970;SDS011;45825;45.434;9.116;2022-09-16T16:39:50;8.55;;;2.55;;
59970;SDS011;45825;45.434;9.116;2022-09-16T16:42:16;7.30;;;2.78;;
59970;SDS011;45825;45.434;9.116;2022-09-16T16:44:41;7.65;;;2.60;;
59970;SDS011;45825;45.434;9.116;2022-09-16T16:47:07;7.45;;;2.63;;
59970;SDS011;45825;45.434;9.116;2022-09-16T16:49:34;7.78;;;3.10;;
59970;SDS011;45825;45.434;9.116;2022-09-16T16:52:01;11.07;;;3.47;;
59970;SDS011;45825;45.434;9.116;2022-09-16T16:54:28;8.43;;;3.10;;
59970;SDS011;45825;45.434;9.116;2022-09-16T16:56:53;7.90;;;3.25;;
59970;SDS011;45825;45.434;9.116;2022-09-16T16:59:20;8.07;;;3.33;;
59970;SDS011;45825;45.434;9.116;2022-09-16T17:01:46;9.35;;;3.30;;
59970;SDS011;45825;45.434;9.116;2022-09-16T17:04:15;7.28;;;3.00;;
59970;SDS011;45825;45.434;9.116;2022-09-16T17:06:41;9.15;;;3.15;;
59970;SDS011;45825;45.434;9.116;2022-09-16T17:09:07;10.10;;;2.72;;
59970;SDS011;45825;45.434;9.116;2022-09-16T17:11:33;8.35;;;2.80;;
59970;SDS011;45825;45.434;9.116;2022-09-16T17:14:00;9.80;;;3.00;;
59970;SDS011;45825;45.434;9.116;2022-09-16T17:16:30;10.85;;;3.17;;
59970;SDS011;45825;45.434;9.116;2022-09-16T17:18:57;7.18;;;2.92;;
59970;SDS011;45825;45.434;9.116;2022-09-16T17:21:29;7.30;;;3.33;;
59970;SDS011;45825;45.434;9.116;2022-09-16T17:23:56;7.57;;;2.80;;
59970;SDS011;45825;45.434;9.116;2022-09-16T17:26:22;6.38;;;2.70;;
59970;SDS011;45825;45.434;9.116;2022-09-16T17:28:49;8.90;;;3.15;;
59970;SDS011;45825;45.434;9.116;2022-09-16T17:33:44;7.63;;;3.00;;
59970;SDS011;45825;45.434;9.116;2022-09-16T17:36:10;10.23;;;3.10;;
59970;SDS011;45825;45.434;9.116;2022-09-16T17:38:39;9.80;;;3.30;;
59970;SDS011;45825;45.434;9.116;2022-09-16T17:41:14;8.35;;;3.00;;
59970;SDS011;45825;45.434;9.116;2022-09-16T17:43:41;6.78;;;2.80;;
59970;SDS011;45825;45.434;9.116;2022-09-16T17:46:11;10.15;;;3.42;;
59970;SDS011;45825;45.434;9.116;2022-09-16T17:48:39;9.60;;;3.00;;
59970;SDS011;45825;45.434;9.116;2022-09-16T17:51:05;6.53;;;2.63;;
59970;SDS011;45825;45.434;9.116;2022-09-16T17:53:30;7.63;;;3.28;;
59970;SDS011;45825;45.434;9.116;2022-09-16T17:56:06;8.55;;;3.38;;
59970;SDS011;45825;45.434;9.116;2022-09-16T17:58:35;9.60;;;2.85;;
59970;SDS011;45825;45.434;9.116;2022-09-16T18:01:03;11.38;;;3.17;;
59970;SDS011;45825;45.434;9.116;2022-09-16T18:03:32;13.35;;;3.42;;
59970;SDS011;45825;45.434;9.116;2022-09-16T18:06:02;10.05;;;3.00;;
59970;SDS011;45825;45.434;9.116;2022-09-16T18:10:54;8.63;;;2.80;;
59970;SDS011;45825;45.434;9.116;2022-09-16T18:13:19;8.95;;;3.20;;
59970;SDS011;45825;45.434;9.116;2022-09-16T18:15:44;10.30;;;3.17;;